Jump to content


AMERICAN AIRLINES FLIGHT AA586 FLOWN ON 09-03-2017 BY CAPTAIN SUKDEO LALLMAN

Pilot StatsCaptain Sukdeo Lallman (LDP511) • 248.1 total hours • 114 total flights [View Logbook]
FLIGHT DETAILS
StatusReceived and approved on 2017-09-03 at 17:09:56
Origin AirportPrincess Juliana Intl (TNCM) • St Maarten I, Netherlands Antilles (13 feet MSL)
Filed Flight PlanFLIGHT PLANNER OFFLINE
Destination AirportCheddi Jagan Intl (SYCJ) • Georgetown, Guyana (96 feet MSL)
Alternate AirportNone Filed
AirlineAmerican Airlines
AircraftBoeing 777-300 (773 / B777-300)
FS Aircraft UsedPMDG 777-323ER American Airlines
Cruising AltitudeFL350
Distance Flown749 nautical miles
Passengers Onboard342 passengers (92.93% full)
DEPARTURE DETAILS
Time Out14:52:54
Taxi Data569,858 lbs total with 119,960 lbs of fuel onboard
Takeoff Data15:06:16 (13 minutes after leaving gate/ramp) • 568,077 lbs total • 10° pitch at 166 knots
Departure METARTNCM 031800Z 13009KT 9999 FEW018TCU FEW///CB 31/26 Q1014 A2996 NOSIG RMK CB TO W SE
ARRIVAL DETAILS
Landing Data17:54:51 • 537,064 lbs total • 1° pitch doing 159 knots at a rate of -1,230.32 feet/minute with 86,624 lbs of fuel onboard
Time In17:57:54 (3 minutes after landing)
Ramp Weight536,521 lbs total
Total Fuel Used33,336 lbs
Total Block Time02:05:24 (2.1 hours) while 16 minutes were spent on the ground
Arrival METARSYCJ 032100Z VRB02KT 9999 FEW013CB SCT014 25/24 Q1011 CB-E-NNW NOSIG
MISCELLANEOUS DETAILS
LiveDISPATCH Version4.8.3.1
FS Version
FSUIPC Version5.10
OS VersionWindows 7 32-bit
Screen Resolution1920 x 1080
Pilot's CommentsNo Comments Reported
FLIGHT MAP